createdAt,value
2018-06-19T00:00:29.869Z,997.74
2018-06-19T00:01:29.859Z,997.72
2018-06-19T00:02:29.860Z,997.74
2018-06-19T00:03:29.868Z,997.83
2018-06-19T00:04:29.869Z,997.79
2018-06-19T00:05:29.858Z,997.8
2018-06-19T00:06:29.866Z,997.83
2018-06-19T00:07:29.864Z,997.81
2018-06-19T00:08:29.860Z,997.83
2018-06-19T00:09:29.862Z,997.84
2018-06-19T00:10:29.863Z,997.77
2018-06-19T00:11:29.866Z,997.81
2018-06-19T00:12:29.865Z,997.82
2018-06-19T00:13:29.865Z,997.84
2018-06-19T00:14:29.864Z,997.82
2018-06-19T00:15:29.866Z,997.81
2018-06-19T00:16:29.866Z,997.82
2018-06-19T00:17:29.865Z,997.83
2018-06-19T00:18:29.866Z,997.83
2018-06-19T00:19:29.866Z,997.86
2018-06-19T00:20:29.865Z,997.81
2018-06-19T00:21:29.865Z,997.81
2018-06-19T00:22:29.869Z,997.84
2018-06-19T00:23:29.869Z,997.82
2018-06-19T00:24:29.868Z,997.86
2018-06-19T00:25:29.869Z,997.87
2018-06-19T00:26:29.874Z,997.85
2018-06-19T00:27:29.871Z,997.82
2018-06-19T00:28:29.874Z,997.84
2018-06-19T00:29:29.880Z,997.83
2018-06-19T00:30:29.883Z,997.83
2018-06-19T00:31:29.881Z,997.79
2018-06-19T00:32:29.876Z,997.81
2018-06-19T00:33:29.880Z,997.83
2018-06-19T00:34:29.876Z,997.81
2018-06-19T00:35:29.874Z,997.8
2018-06-19T00:36:29.875Z,997.8
2018-06-19T00:37:29.877Z,997.82
2018-06-19T00:38:29.875Z,997.85
2018-06-19T00:39:29.879Z,997.8
2018-06-19T00:40:29.879Z,997.82
2018-06-19T00:41:29.881Z,997.83
2018-06-19T00:42:29.883Z,997.85
2018-06-19T00:43:29.879Z,997.9
2018-06-19T00:44:29.883Z,997.86
2018-06-19T00:45:29.881Z,997.88
2018-06-19T00:46:29.880Z,997.9
2018-06-19T00:47:29.884Z,997.91
2018-06-19T00:48:29.881Z,997.9
2018-06-19T00:49:29.886Z,997.92
2018-06-19T00:50:29.888Z,997.93
2018-06-19T00:51:29.885Z,997.94
2018-06-19T00:52:29.883Z,997.96
2018-06-19T00:53:29.885Z,997.94
2018-06-19T00:54:29.903Z,997.95
2018-06-19T00:55:29.887Z,997.92
2018-06-19T00:56:29.941Z,997.92
2018-06-19T00:57:29.894Z,997.92
2018-06-19T00:58:29.889Z,997.89
2018-06-19T00:59:29.889Z,997.87
2018-06-19T01:00:29.892Z,997.92
2018-06-19T01:01:29.899Z,997.91
2018-06-19T01:02:29.891Z,997.91
2018-06-19T01:03:29.894Z,997.87
2018-06-19T01:04:29.890Z,997.88
2018-06-19T01:05:29.901Z,997.87
2018-06-19T01:06:29.894Z,997.91
2018-06-19T01:07:29.896Z,997.88
2018-06-19T01:08:29.897Z,997.93
2018-06-19T01:09:29.897Z,997.9
2018-06-19T01:10:29.904Z,997.89
2018-06-19T01:11:29.897Z,997.89
2018-06-19T01:12:29.898Z,997.94
2018-06-19T01:13:29.969Z,997.92
2018-06-19T01:14:29.900Z,997.92
2018-06-19T01:15:29.904Z,997.93
2018-06-19T01:16:29.899Z,997.9
2018-06-19T01:17:29.905Z,997.87
2018-06-19T01:18:29.905Z,997.91
2018-06-19T01:19:29.902Z,997.88
2018-06-19T01:20:29.942Z,997.87
2018-06-19T01:21:29.902Z,997.87
2018-06-19T01:22:29.905Z,997.88
2018-06-19T01:23:29.909Z,997.84
2018-06-19T01:24:29.906Z,997.86
2018-06-19T01:25:29.922Z,997.89
2018-06-19T01:26:29.911Z,997.89
2018-06-19T01:27:29.915Z,997.9
2018-06-19T01:28:29.906Z,997.93
2018-06-19T01:29:29.905Z,997.91
2018-06-19T01:30:29.907Z,997.92
2018-06-19T01:31:29.908Z,997.91
2018-06-19T01:32:29.907Z,997.96
2018-06-19T01:33:29.911Z,997.91
2018-06-19T01:34:29.911Z,997.93
2018-06-19T01:35:29.912Z,997.93
2018-06-19T01:36:29.910Z,997.98
2018-06-19T01:37:29.913Z,997.99
2018-06-19T01:38:29.921Z,998.03
2018-06-19T01:39:29.910Z,998.04
2018-06-19T01:40:29.911Z,998.04
2018-06-19T01:41:29.914Z,998.03
2018-06-19T01:42:29.910Z,998.04
2018-06-19T01:43:29.914Z,998
2018-06-19T01:44:29.913Z,997.98
2018-06-19T01:45:29.917Z,997.99
2018-06-19T01:46:29.914Z,998
2018-06-19T01:47:29.913Z,997.96
2018-06-19T01:48:29.913Z,997.96
2018-06-19T01:49:29.912Z,997.96
2018-06-19T01:50:29.916Z,998.01
2018-06-19T01:51:29.936Z,997.97
2018-06-19T01:52:29.916Z,997.97
2018-06-19T01:53:29.917Z,997.97
2018-06-19T01:54:29.918Z,997.97
2018-06-19T01:55:29.916Z,997.96
2018-06-19T01:56:29.917Z,997.94
2018-06-19T01:57:29.916Z,997.98
2018-06-19T01:58:29.916Z,998.02
2018-06-19T01:59:29.921Z,997.99
2018-06-19T02:00:29.920Z,997.98
2018-06-19T02:01:29.921Z,998.01
2018-06-19T02:02:29.917Z,997.96
2018-06-19T02:03:29.920Z,997.98
2018-06-19T02:04:29.921Z,997.97
2018-06-19T02:05:29.921Z,998.01
2018-06-19T02:06:29.919Z,998.02
2018-06-19T02:07:29.923Z,998.03
2018-06-19T02:08:29.932Z,998
2018-06-19T02:09:29.922Z,998
2018-06-19T02:10:29.923Z,997.98
2018-06-19T02:11:29.921Z,998
2018-06-19T02:12:29.923Z,997.96
2018-06-19T02:13:29.926Z,998.02
2018-06-19T02:14:29.923Z,998
2018-06-19T02:15:29.933Z,997.98
2018-06-19T02:16:29.933Z,997.98
2018-06-19T02:17:29.926Z,997.96
2018-06-19T02:18:29.984Z,997.98
2018-06-19T02:19:30.011Z,997.93
2018-06-19T02:20:29.926Z,998
2018-06-19T02:21:29.926Z,998.02
2018-06-19T02:22:29.927Z,998.06
2018-06-19T02:23:29.933Z,998.05
2018-06-19T02:24:29.929Z,998.04
2018-06-19T02:25:29.933Z,998.05
2018-06-19T02:26:29.928Z,998.04
2018-06-19T02:27:29.929Z,998.04
2018-06-19T02:28:29.929Z,998.01
2018-06-19T02:29:29.929Z,998.03
2018-06-19T02:30:29.932Z,998.07
2018-06-19T02:31:29.930Z,998.1
2018-06-19T02:32:29.930Z,998.08
2018-06-19T02:33:29.932Z,998.04
2018-06-19T02:34:29.934Z,998.05
2018-06-19T02:35:29.931Z,998.07
2018-06-19T02:36:29.932Z,998.08
2018-06-19T02:37:29.939Z,998.06
2018-06-19T02:38:29.934Z,998.06
2018-06-19T02:39:29.932Z,998.07
2018-06-19T02:40:29.932Z,998.07
2018-06-19T02:41:29.932Z,998.12
2018-06-19T02:42:29.943Z,998.11
2018-06-19T02:43:29.934Z,998.12
2018-06-19T02:44:29.933Z,998.08
2018-06-19T02:45:29.935Z,998.11
2018-06-19T02:46:29.933Z,998.12
2018-06-19T02:47:30.739Z,998.13
2018-06-19T02:48:29.935Z,998.16
2018-06-19T02:49:29.935Z,998.18
2018-06-19T02:50:29.935Z,998.18
2018-06-19T02:51:29.932Z,998.21
2018-06-19T02:52:29.934Z,998.2
2018-06-19T02:53:29.936Z,998.22
2018-06-19T02:54:29.933Z,998.19
2018-06-19T02:55:29.933Z,998.21
2018-06-19T02:56:29.933Z,998.18
2018-06-19T02:57:29.933Z,998.25
2018-06-19T02:58:29.932Z,998.26
2018-06-19T02:59:29.934Z,998.26
2018-06-19T03:00:30.048Z,998.25
2018-06-19T03:01:29.933Z,998.23
2018-06-19T03:02:29.932Z,998.24
2018-06-19T03:03:29.932Z,998.25
2018-06-19T03:04:29.938Z,998.29
2018-06-19T03:05:29.939Z,998.28
2018-06-19T03:06:29.931Z,998.3
2018-06-19T03:07:29.936Z,998.32
2018-06-19T03:08:29.945Z,998.37
2018-06-19T03:09:29.934Z,998.37
2018-06-19T03:10:29.939Z,998.32
2018-06-19T03:11:29.936Z,998.34
2018-06-19T03:12:29.933Z,998.38
2018-06-19T03:13:29.933Z,998.34
2018-06-19T03:14:29.933Z,998.38
2018-06-19T03:15:29.939Z,998.34
2018-06-19T03:16:29.935Z,998.35
2018-06-19T03:17:29.935Z,998.37
2018-06-19T03:18:29.937Z,998.4
2018-06-19T03:19:29.938Z,998.43
2018-06-19T03:20:29.935Z,998.39
2018-06-19T03:21:29.934Z,998.42
2018-06-19T03:22:29.944Z,998.4
2018-06-19T03:23:29.937Z,998.39
2018-06-19T03:24:29.937Z,998.41
2018-06-19T03:25:29.940Z,998.36
2018-06-19T03:26:29.927Z,998.41
2018-06-19T03:27:29.939Z,998.37
2018-06-19T03:28:29.935Z,998.36
2018-06-19T03:29:29.927Z,998.42
2018-06-19T03:30:29.927Z,998.39
2018-06-19T03:31:29.926Z,998.38
2018-06-19T03:32:29.926Z,998.35
2018-06-19T03:33:29.927Z,998.38
2018-06-19T03:34:29.925Z,998.42
2018-06-19T03:35:29.941Z,998.4
2018-06-19T03:36:29.927Z,998.46
2018-06-19T03:37:29.929Z,998.44
2018-06-19T03:38:29.923Z,998.44
2018-06-19T03:39:29.923Z,998.45
2018-06-19T03:40:29.924Z,998.43
2018-06-19T03:41:29.920Z,998.45
2018-06-19T03:42:29.922Z,998.44
2018-06-19T03:43:29.926Z,998.46
2018-06-19T03:44:29.926Z,998.44
2018-06-19T03:45:29.922Z,998.41
2018-06-19T03:46:29.924Z,998.47
2018-06-19T03:47:29.921Z,998.44
2018-06-19T03:48:29.927Z,998.39
2018-06-19T03:49:29.938Z,998.49
2018-06-19T03:50:29.926Z,998.41
2018-06-19T03:51:29.923Z,998.45
2018-06-19T03:52:29.922Z,998.46
2018-06-19T03:53:29.929Z,998.42
2018-06-19T03:54:29.924Z,998.46
2018-06-19T03:55:29.923Z,998.48
2018-06-19T03:56:29.921Z,998.48
2018-06-19T03:57:29.925Z,998.52
2018-06-19T03:58:29.923Z,998.54
2018-06-19T03:59:29.929Z,998.53
2018-06-19T04:00:29.921Z,998.53
2018-06-19T04:01:29.926Z,998.54
2018-06-19T04:02:29.926Z,998.57
2018-06-19T04:03:29.924Z,998.6
2018-06-19T04:04:29.926Z,998.57
2018-06-19T04:05:29.925Z,998.62
2018-06-19T04:06:29.925Z,998.65
2018-06-19T04:07:29.925Z,998.72
2018-06-19T04:08:29.927Z,998.72
2018-06-19T04:09:29.927Z,998.74
2018-06-19T04:10:29.963Z,998.72
2018-06-19T04:11:29.943Z,998.72
2018-06-19T04:12:29.926Z,998.7
2018-06-19T04:13:29.936Z,998.73
2018-06-19T04:14:29.945Z,998.73
2018-06-19T04:15:29.929Z,998.72
2018-06-19T04:16:29.930Z,998.73
2018-06-19T04:17:29.928Z,998.77
2018-06-19T04:18:29.929Z,998.77
2018-06-19T04:19:29.929Z,998.77
2018-06-19T04:20:29.932Z,998.77
2018-06-19T04:21:29.930Z,998.77
2018-06-19T04:22:29.972Z,998.75
2018-06-19T04:23:29.932Z,998.73
2018-06-19T04:24:29.933Z,998.78
2018-06-19T04:25:33.139Z,998.77
2018-06-19T04:26:29.936Z,998.77
2018-06-19T04:27:29.936Z,998.76
2018-06-19T04:28:29.933Z,998.77
2018-06-19T04:29:29.937Z,998.79
2018-06-19T04:30:29.937Z,998.78
2018-06-19T04:31:29.938Z,998.73
2018-06-19T04:32:29.945Z,998.77
2018-06-19T04:33:29.976Z,998.77
2018-06-19T04:34:29.939Z,998.76
2018-06-19T04:35:29.939Z,998.75
2018-06-19T04:36:29.946Z,998.75
2018-06-19T04:37:29.943Z,998.73
2018-06-19T04:38:29.943Z,998.75
2018-06-19T04:39:29.941Z,998.76
2018-06-19T04:40:29.944Z,998.81
2018-06-19T04:41:29.945Z,998.78
2018-06-19T04:42:29.946Z,998.78
2018-06-19T04:43:29.947Z,998.8
2018-06-19T04:44:29.946Z,998.86
2018-06-19T04:45:29.973Z,998.83
2018-06-19T04:46:29.950Z,998.84
2018-06-19T04:47:29.951Z,998.77
2018-06-19T04:48:29.952Z,998.81
2018-06-19T04:49:29.955Z,998.84
2018-06-19T04:50:29.957Z,998.78
2018-06-19T04:51:29.971Z,998.77
2018-06-19T04:52:29.962Z,998.76
2018-06-19T04:53:29.968Z,998.75
2018-06-19T04:54:29.963Z,998.74
2018-06-19T04:55:29.979Z,998.75
2018-06-19T04:56:29.972Z,998.74
2018-06-19T04:57:29.981Z,998.77
2018-06-19T04:58:29.976Z,998.81
2018-06-19T04:59:29.977Z,998.79
2018-06-19T05:00:29.978Z,998.77
2018-06-19T05:01:29.977Z,998.73
2018-06-19T05:02:29.977Z,998.73
2018-06-19T05:03:29.977Z,998.77
2018-06-19T05:04:29.980Z,998.77
2018-06-19T05:05:29.987Z,998.75
2018-06-19T05:06:29.984Z,998.76
2018-06-19T05:07:29.993Z,998.72
2018-06-19T05:08:29.988Z,998.7
2018-06-19T05:09:29.993Z,998.73
2018-06-19T05:10:29.993Z,998.72
2018-06-19T05:11:29.992Z,998.78
2018-06-19T05:12:29.994Z,998.77
2018-06-19T05:13:29.997Z,998.76
2018-06-19T05:14:30.001Z,998.79
2018-06-19T05:15:30.002Z,998.82
2018-06-19T05:16:30.004Z,998.79
2018-06-19T05:17:30.004Z,998.72
2018-06-19T05:18:30.008Z,998.76
2018-06-19T05:19:30.008Z,998.72
2018-06-19T05:20:30.011Z,998.71
2018-06-19T05:21:30.015Z,999.01
2018-06-19T05:22:30.014Z,998.82
2018-06-19T05:23:30.014Z,998.82
2018-06-19T05:24:30.019Z,998.81
2018-06-19T05:25:30.021Z,998.85
2018-06-19T05:26:30.027Z,998.85
2018-06-19T05:27:30.025Z,998.83
2018-06-19T05:28:30.026Z,998.76
2018-06-19T05:29:30.029Z,998.74
2018-06-19T05:30:30.110Z,998.72
2018-06-19T05:31:30.033Z,998.79
2018-06-19T05:32:30.039Z,998.78
2018-06-19T05:33:30.041Z,998.79
2018-06-19T05:34:30.042Z,998.78
2018-06-19T05:35:30.044Z,998.77
2018-06-19T05:36:30.047Z,998.82
2018-06-19T05:37:30.051Z,998.83
2018-06-19T05:38:30.052Z,998.91
2018-06-19T05:39:30.055Z,998.9
2018-06-19T05:40:30.058Z,998.97
2018-06-19T05:41:30.060Z,998.95
2018-06-19T05:42:30.063Z,998.98
2018-06-19T05:43:30.068Z,998.95
2018-06-19T05:44:30.069Z,998.96
2018-06-19T05:45:30.073Z,998.97
2018-06-19T05:46:30.076Z,998.95
2018-06-19T05:47:30.079Z,998.94
2018-06-19T05:48:30.079Z,998.92
2018-06-19T05:49:30.083Z,998.95
2018-06-19T05:50:30.085Z,998.96
2018-06-19T05:51:30.085Z,998.94
2018-06-19T05:52:30.093Z,999
2018-06-19T05:53:30.097Z,998.98
2018-06-19T05:54:30.096Z,998.97
2018-06-19T05:55:30.100Z,998.95
2018-06-19T05:56:30.114Z,998.94
2018-06-19T05:57:30.103Z,998.95
2018-06-19T05:58:30.109Z,998.93
2018-06-19T05:59:30.113Z,998.94
2018-06-19T06:00:30.109Z,998.95
2018-06-19T06:01:30.113Z,998.89
2018-06-19T06:02:30.115Z,998.92
2018-06-19T06:03:30.121Z,998.97
2018-06-19T06:04:30.118Z,998.98
2018-06-19T06:05:30.152Z,998.99
2018-06-19T06:06:30.122Z,999
2018-06-19T06:07:30.137Z,999.07
2018-06-19T06:08:30.127Z,999.1
2018-06-19T06:09:30.130Z,999.07
2018-06-19T06:10:30.170Z,999.09
2018-06-19T06:11:30.140Z,999.12
2018-06-19T06:12:30.134Z,999.11
2018-06-19T06:13:30.156Z,999.11
2018-06-19T06:23:03.627Z,999.18
2018-06-19T06:24:03.627Z,999.22
2018-06-19T06:25:03.634Z,999.25
2018-06-19T06:26:03.626Z,999.26
2018-06-19T06:27:03.627Z,999.23
2018-06-19T06:28:03.631Z,999.22
2018-06-19T06:29:03.631Z,999.24
2018-06-19T06:30:03.631Z,999.26
2018-06-19T06:31:03.632Z,999.26
2018-06-19T06:32:03.636Z,999.25
2018-06-19T06:33:03.654Z,999.26
2018-06-19T06:34:03.641Z,999.27
2018-06-19T06:35:03.641Z,999.26
2018-06-19T06:36:03.647Z,999.27
2018-06-19T06:37:03.692Z,999.31
2018-06-19T06:38:04.453Z,999.34
2018-06-19T06:39:03.651Z,999.32
2018-06-19T06:40:03.656Z,999.34
2018-06-19T06:41:03.655Z,999.31
2018-06-19T06:42:03.661Z,999.29
2018-06-19T06:43:03.665Z,999.32
2018-06-19T06:44:03.670Z,999.31
2018-06-19T06:45:03.669Z,999.32
2018-06-19T06:46:03.673Z,999.36
2018-06-19T06:47:03.682Z,999.34
2018-06-19T06:48:03.685Z,999.36
2018-06-19T06:49:03.688Z,999.35
2018-06-19T06:50:03.687Z,999.29
2018-06-19T06:51:03.703Z,999.35
2018-06-19T06:52:03.693Z,999.35
2018-06-19T06:53:03.697Z,999.32
2018-06-19T06:54:03.699Z,999.27
2018-06-19T06:55:03.707Z,999.3
2018-06-19T06:56:03.704Z,999.34
2018-06-19T06:57:03.709Z,999.35
2018-06-19T06:58:03.713Z,999.37
2018-06-19T06:59:03.715Z,999.38
2018-06-19T07:00:03.719Z,999.39
2018-06-19T07:01:03.752Z,999.38
2018-06-19T07:02:03.729Z,999.4
2018-06-19T07:03:03.729Z,999.38
2018-06-19T07:04:03.734Z,999.36
2018-06-19T07:05:03.737Z,999.39
2018-06-19T07:06:03.742Z,999.32
2018-06-19T07:07:03.746Z,999.37
2018-06-19T07:08:03.752Z,999.37
2018-06-19T07:09:03.761Z,999.55
2018-06-19T07:10:03.836Z,999.38
2018-06-19T07:11:03.763Z,999.36
2018-06-19T07:12:03.766Z,999.39
2018-06-19T07:13:03.771Z,999.49
2018-06-19T07:14:03.779Z,999.45
2018-06-19T07:15:03.781Z,999.4
2018-06-19T07:16:03.788Z,999.41
2018-06-19T07:17:03.794Z,999.27
2018-06-19T07:18:03.796Z,999.26
2018-06-19T07:19:03.878Z,999.24
2018-06-19T07:20:03.811Z,999.22
2018-06-19T07:21:03.814Z,999.26
2018-06-19T07:22:03.827Z,999.26
2018-06-19T07:23:03.826Z,999.26
2018-06-19T07:24:03.832Z,999.26
2018-06-19T07:25:03.837Z,999.41
2018-06-19T07:26:03.865Z,999.38
2018-06-19T07:27:03.846Z,999.33
2018-06-19T07:28:03.853Z,999.35
2018-06-19T07:29:03.862Z,999.31
2018-06-19T07:30:03.866Z,999.32
2018-06-19T07:31:03.879Z,999.24
2018-06-19T07:32:03.916Z,999.43
2018-06-19T07:33:03.883Z,999.46
2018-06-19T07:34:03.889Z,999.42
2018-06-19T07:35:03.898Z,999.39
2018-06-19T07:36:03.914Z,999.21
2018-06-19T07:37:03.913Z,999.2
2018-06-19T07:38:03.981Z,999.17
2018-06-19T07:39:03.924Z,999.19
2018-06-19T07:40:03.932Z,999.16
2018-06-19T07:41:03.939Z,999.14
2018-06-19T07:42:03.946Z,999.11
2018-06-19T07:43:03.961Z,999.08
2018-06-19T07:44:04.016Z,999.11
2018-06-19T07:45:03.975Z,999.08
2018-06-19T07:46:03.991Z,999
2018-06-19T07:47:03.993Z,999.03
2018-06-19T07:48:03.993Z,999
2018-06-19T07:49:03.993Z,998.95
2018-06-19T07:50:04.002Z,999.03
2018-06-19T07:51:04.009Z,999.02
2018-06-19T07:52:04.011Z,998.99
2018-06-19T07:53:04.019Z,999.01
2018-06-19T07:54:04.021Z,999
2018-06-19T07:55:04.033Z,999.01
2018-06-19T07:56:04.035Z,999.01
2018-06-19T07:57:04.053Z,999.04
2018-06-19T07:58:04.059Z,999.04
2018-06-19T07:59:04.056Z,999.07
2018-06-19T08:00:04.054Z,999.08
2018-06-19T08:01:04.061Z,999.04
2018-06-19T08:02:04.075Z,999.06
2018-06-19T08:03:04.080Z,999.04
2018-06-19T08:04:04.079Z,999.08
2018-06-19T08:05:04.092Z,999.08
2018-06-19T08:06:04.088Z,999.31
2018-06-19T08:07:04.094Z,999.24
2018-06-19T08:08:04.094Z,999.23
2018-06-19T08:09:04.105Z,999.3
2018-06-19T08:10:04.106Z,999.31
2018-06-19T08:11:04.114Z,999.29
2018-06-19T08:12:04.117Z,999.29
2018-06-19T08:13:04.125Z,999.26
2018-06-19T08:14:04.929Z,999.24
2018-06-19T08:15:04.143Z,999.14
2018-06-19T08:16:04.141Z,999.06
2018-06-19T08:17:04.147Z,998.99
2018-06-19T08:18:04.158Z,998.99
2018-06-19T08:19:04.163Z,998.91
2018-06-19T08:20:04.170Z,998.93
2018-06-19T08:21:04.178Z,998.93
2018-06-19T08:22:04.182Z,998.94
2018-06-19T08:23:04.187Z,998.88
2018-06-19T08:24:04.196Z,998.87
2018-06-19T08:25:04.202Z,998.84
2018-06-19T08:26:04.215Z,998.84
2018-06-19T08:27:04.214Z,998.86
2018-06-19T08:28:04.223Z,998.83
2018-06-19T08:29:04.227Z,998.85
2018-06-19T08:30:04.237Z,998.87
2018-06-19T08:31:04.238Z,998.87
2018-06-19T08:32:04.245Z,998.86
2018-06-19T08:33:04.249Z,998.84
2018-06-19T08:34:04.254Z,998.86
2018-06-19T08:35:04.262Z,998.89
2018-06-19T08:36:04.267Z,998.82
2018-06-19T08:37:04.271Z,998.84
2018-06-19T08:38:04.274Z,998.82
2018-06-19T08:39:04.285Z,998.83
2018-06-19T08:40:04.285Z,998.82
2018-06-19T08:41:04.292Z,998.79
2018-06-19T08:42:04.297Z,998.82
2018-06-19T08:43:04.300Z,998.78
2018-06-19T08:44:04.305Z,998.85
2018-06-19T08:45:04.310Z,998.87
2018-06-19T08:46:04.315Z,998.91
2018-06-19T08:47:04.320Z,998.93
2018-06-19T08:48:04.338Z,999.01
2018-06-19T08:49:04.330Z,999.15
2018-06-19T08:50:04.427Z,999.17
2018-06-19T08:51:04.340Z,999.23
2018-06-19T08:52:04.343Z,999.23
2018-06-19T08:53:04.355Z,999.19
2018-06-19T08:54:04.353Z,999.1
2018-06-19T08:55:04.374Z,998.99
2018-06-19T08:56:04.369Z,998.99
2018-06-19T08:57:04.379Z,998.93
2018-06-19T08:58:04.377Z,998.98
2018-06-19T08:59:04.401Z,999.01
2018-06-19T09:00:04.387Z,999.05
2018-06-19T09:01:04.397Z,998.99
2018-06-19T09:02:04.411Z,998.96
2018-06-19T09:03:04.407Z,999.04
2018-06-19T09:04:04.414Z,998.99
2018-06-19T09:05:04.422Z,999.02
2018-06-19T09:06:04.428Z,999.03
2018-06-19T09:07:04.430Z,999.1
2018-06-19T09:08:04.438Z,999.11
2018-06-19T09:09:04.441Z,999.15
2018-06-19T09:10:04.449Z,999.1
2018-06-19T09:11:04.453Z,999.12
2018-06-19T09:12:04.461Z,999.12
2018-06-19T09:13:04.465Z,999.11
2018-06-19T09:14:04.478Z,999.08
2018-06-19T09:15:04.476Z,999
2018-06-19T09:16:04.481Z,998.98
2018-06-19T09:17:04.485Z,999
2018-06-19T09:18:04.495Z,999.04
2018-06-19T09:19:04.500Z,999.01
2018-06-19T09:20:04.538Z,999.01
2018-06-19T09:21:04.511Z,999
2018-06-19T09:22:04.519Z,998.97
2018-06-19T09:23:04.529Z,998.98
2018-06-19T09:24:04.534Z,999.01
2018-06-19T09:25:04.533Z,999.02
2018-06-19T09:26:04.654Z,999.01
2018-06-19T09:27:04.544Z,998.99
2018-06-19T09:28:04.550Z,998.97
2018-06-19T09:29:04.553Z,998.96
2018-06-19T09:30:04.561Z,999.01
2018-06-19T09:31:04.566Z,998.95
2018-06-19T09:32:04.574Z,998.92
2018-06-19T09:33:04.577Z,998.91
2018-06-19T09:34:04.584Z,999.02
2018-06-19T09:35:04.593Z,999.02
2018-06-19T09:36:04.594Z,999.08
2018-06-19T09:37:04.600Z,999.05
2018-06-19T09:38:04.609Z,999.1
2018-06-19T09:39:04.610Z,999
2018-06-19T09:40:04.617Z,998.9
2018-06-19T09:41:04.628Z,998.92
2018-06-19T09:42:04.627Z,998.87
2018-06-19T09:43:04.636Z,998.9
2018-06-19T09:44:04.637Z,998.88
2018-06-19T09:45:04.647Z,998.93
2018-06-19T09:46:04.649Z,998.89
2018-06-19T09:47:04.676Z,998.99
2018-06-19T09:48:04.663Z,999
2018-06-19T09:49:04.663Z,999.02
2018-06-19T09:50:04.670Z,999
2018-06-19T09:51:04.675Z,999.02
2018-06-19T09:52:04.679Z,999.06
2018-06-19T09:53:04.688Z,998.98
2018-06-19T09:54:04.690Z,999.01
2018-06-19T09:55:04.696Z,999.05
2018-06-19T09:56:04.699Z,999.09
2018-06-19T09:57:04.717Z,999.14
2018-06-19T09:58:04.715Z,999.14
2018-06-19T09:59:04.774Z,999.17
2018-06-19T10:00:04.720Z,999.15
2018-06-19T10:01:04.724Z,999.2
2018-06-19T10:02:04.730Z,999.22
2018-06-19T10:03:04.734Z,999.13
2018-06-19T10:04:04.740Z,999.1
2018-06-19T10:05:04.742Z,999.04
2018-06-19T10:06:04.752Z,999.12
2018-06-19T10:07:04.754Z,999.12
2018-06-19T10:08:04.760Z,999.06
2018-06-19T10:09:04.764Z,999.07
2018-06-19T10:10:04.774Z,999.08
2018-06-19T10:11:04.779Z,999.05
2018-06-19T10:12:04.870Z,999.06
2018-06-19T10:13:04.785Z,999.06
2018-06-19T10:14:04.789Z,999.05
2018-06-19T10:15:04.795Z,999.03
2018-06-19T10:16:04.803Z,999.04
2018-06-19T10:17:04.805Z,999.05
2018-06-19T10:18:04.815Z,999.02
2018-06-19T10:19:04.817Z,999.05
2018-06-19T10:20:04.821Z,999.02
2018-06-19T10:21:04.827Z,999.08
2018-06-19T10:22:04.831Z,999.03
2018-06-19T10:23:04.837Z,998.92
2018-06-19T10:53:39.864Z,999.14
2018-06-19T10:54:39.883Z,999.07
2018-06-19T10:55:39.872Z,999.07
2018-06-19T10:56:39.865Z,998.96
2018-06-19T10:57:39.864Z,998.94
2018-06-19T10:58:39.866Z,998.98
2018-06-19T10:59:39.866Z,998.95
2018-06-19T11:00:39.871Z,998.92
2018-06-19T11:01:39.875Z,998.86
2018-06-19T11:02:39.878Z,998.85
2018-06-19T11:03:39.883Z,998.84
2018-06-19T11:04:39.889Z,998.88
2018-06-19T11:05:39.903Z,998.9
2018-06-19T11:06:39.899Z,998.92
2018-06-19T11:07:39.903Z,998.89
2018-06-19T11:08:39.908Z,998.85
2018-06-19T11:09:39.915Z,998.76
2018-06-19T11:10:39.929Z,998.8
2018-06-19T11:11:39.956Z,998.78
2018-06-19T11:12:39.931Z,998.77
2018-06-19T11:13:39.935Z,998.86
2018-06-19T11:14:39.939Z,998.79
2018-06-19T11:15:39.942Z,998.78
2018-06-19T11:16:39.946Z,998.79
2018-06-19T11:17:39.956Z,998.79
2018-06-19T11:18:39.959Z,998.73
2018-06-19T11:19:39.970Z,998.75
2018-06-19T11:20:39.986Z,998.78
2018-06-19T11:21:39.973Z,998.78
2018-06-19T11:22:39.988Z,998.76
2018-06-19T11:23:39.992Z,998.76
2018-06-19T11:24:39.997Z,998.7
2018-06-19T11:25:40.011Z,998.68
2018-06-19T11:26:40.000Z,998.69
2018-06-19T11:27:40.008Z,998.67
2018-06-19T11:28:40.010Z,998.65
2018-06-19T11:29:40.021Z,998.7
2018-06-19T11:30:40.021Z,998.69
2018-06-19T11:31:40.022Z,998.68
2018-06-19T11:32:40.051Z,998.68
2018-06-19T11:33:40.037Z,998.7
2018-06-19T11:34:40.045Z,998.61
2018-06-19T11:35:40.049Z,998.63
2018-06-19T11:36:40.117Z,998.66
2018-06-19T11:37:40.076Z,998.63
2018-06-19T11:38:40.132Z,998.53
2018-06-19T11:39:40.064Z,998.5
2018-06-19T11:40:40.078Z,998.53
2018-06-19T11:41:40.084Z,998.64
2018-06-19T11:42:40.081Z,998.58
2018-06-19T11:43:40.084Z,998.64
2018-06-19T11:44:40.096Z,998.6
2018-06-19T11:45:40.093Z,998.58
2018-06-19T11:46:40.102Z,998.63
2018-06-19T11:47:40.104Z,998.57
2018-06-19T11:48:40.106Z,998.57
2018-06-19T11:49:40.118Z,998.54
2018-06-19T11:50:40.120Z,998.5
2018-06-19T11:51:40.498Z,998.58
2018-06-19T11:52:40.131Z,998.6
2018-06-19T11:53:40.151Z,998.64
2018-06-19T11:54:40.188Z,998.63
2018-06-19T11:55:40.160Z,998.59
2018-06-19T11:56:40.149Z,998.57
2018-06-19T11:57:40.156Z,998.58
2018-06-19T11:58:40.164Z,998.51
2018-06-19T11:59:40.171Z,998.53
2018-06-19T12:00:40.187Z,998.48
2018-06-19T12:01:40.178Z,998.61
2018-06-19T12:02:40.183Z,998.63
2018-06-19T12:03:40.193Z,998.62
2018-06-19T12:04:40.194Z,998.56
2018-06-19T12:05:40.201Z,998.59
2018-06-19T12:06:40.267Z,998.51
2018-06-19T12:07:40.210Z,998.55
2018-06-19T12:08:40.217Z,998.52
2018-06-19T12:09:40.222Z,998.5
2018-06-19T12:10:40.229Z,998.53
2018-06-19T12:11:40.233Z,998.52
2018-06-19T12:12:40.240Z,998.47
2018-06-19T12:13:40.247Z,998.55
2018-06-19T12:14:40.254Z,998.51
2018-06-19T12:15:40.258Z,998.47
2018-06-19T12:16:40.266Z,998.45
2018-06-19T12:17:40.270Z,998.41
2018-06-19T12:18:40.280Z,998.38
2018-06-19T12:19:40.285Z,998.38
2018-06-19T12:20:40.290Z,998.4
2018-06-19T12:21:40.292Z,998.29
2018-06-19T12:22:40.297Z,998.34
2018-06-19T12:23:40.309Z,998.38
2018-06-19T12:24:40.310Z,998.38
2018-06-19T12:25:40.320Z,998.33
2018-06-19T12:26:40.326Z,998.33
2018-06-19T12:27:40.329Z,998.34
2018-06-19T12:28:40.340Z,998.34
2018-06-19T12:29:40.348Z,998.29
2018-06-19T12:30:40.355Z,998.24
2018-06-19T12:31:40.354Z,998.24
2018-06-19T12:32:40.361Z,998.25
2018-06-19T12:33:40.365Z,998.28
2018-06-19T12:34:40.373Z,998.22
2018-06-19T12:35:40.378Z,998.2
2018-06-19T12:36:40.383Z,998.16
2018-06-19T12:37:40.389Z,998.15
2018-06-19T12:38:40.392Z,998.1
2018-06-19T12:39:40.401Z,998.21
2018-06-19T12:40:40.407Z,998.22
2018-06-19T12:41:40.531Z,998.22
2018-06-19T12:42:40.417Z,998.29
2018-06-19T12:43:40.424Z,998.27
2018-06-19T12:44:40.429Z,998.17
2018-06-19T12:45:40.435Z,998.17
2018-06-19T12:46:40.441Z,998.17
2018-06-19T12:47:40.446Z,998.15
2018-06-19T12:48:40.459Z,998.1
2018-06-19T12:49:40.460Z,998.23
2018-06-19T12:50:40.463Z,998.27
2018-06-19T12:51:40.469Z,998.28
2018-06-19T12:52:40.476Z,998.28
2018-06-19T12:53:40.480Z,998.26
2018-06-19T12:54:40.493Z,998.28
2018-06-19T12:55:40.491Z,998.3
2018-06-19T12:56:40.497Z,998.23
2018-06-19T12:57:40.506Z,998.16
2018-06-19T12:58:40.530Z,998.12
2018-06-19T12:59:40.521Z,998.11
2018-06-19T13:00:40.523Z,998.09
2018-06-19T13:01:40.607Z,998.11
2018-06-19T13:02:40.532Z,998.08
2018-06-19T13:03:40.536Z,998.09
2018-06-19T13:04:40.544Z,998.14
2018-06-19T13:05:40.560Z,998.13
2018-06-19T13:06:40.552Z,998.06
2018-06-19T13:07:40.558Z,998.06
2018-06-19T13:08:40.565Z,998.08
2018-06-19T13:09:40.569Z,998.08